Silver Shadow — C6FN6 — position and weather

sailwx.info

Track history (hours):
 
Tides and Currents Weather Stations Pressure Air Temp Water Temp Dewpoint Dewpoint Depression Visibility Wind Speed Wind Dir Waves Ship Positions

Silver Shadow

Operator: V Ships Leisure SAM

Last reported at 2017-Jul-21 22:07 UTC. Time now 2017-Jul-22 16:56 UTC.
Position N 51°50' W 129°44'.

Length 186 m; draft 6.1 m.

Type: Ship. MMSI: 308628000.

Date/timePositionNaut miles runAvg speedWind from/ knotsBaromVisibWave heightAir tempDewpointWater temp
2017-Jul-21 22:07N 51°50' W 129°44'317.0
2017-Jul-21 21:58N 51°48' W 129°40'817.6
2017-Jul-21 21:31N 51°44' W 129°30'816.9
2017-Jul-21 21:01N 51°39' W 129°18'917.0
2017-Jul-21 20:31N 51°34' W 129°07'816.7
2017-Jul-21 20:01N 51°30' W 128°55'816.8
2017-Jul-21 19:30N 51°25' W 128°44'917.3
2017-Jul-21 19:00N 51°20' W 128°33'918.1
2017-Jul-21 18:30N 51°15' W 128°21'917.9
2017-Jul-21 18:00N 51°09' W 128°10'918.1
2017-Jul-21 17:28N 51°04' W 127°57'817.5
2017-Jul-21 17:00N 50°59' W 127°47'815.6
2017-Jul-21 16:30N 50°54' W 127°37'917.2
2017-Jul-21 16:00N 50°50' W 127°26'917.7
2017-Jul-21 15:30N 50°46' W 127°13'917.4
2017-Jul-21 15:00N 50°43' W 126°60'917.2
2017-Jul-21 14:28N 50°38' W 126°48'815.2
2017-Jul-21 13:58N 50°32' W 126°40'915.6
2017-Jul-21 13:25N 50°30' W 126°27'2716.9
2017-Jul-21 11:50N 50°23' W 125°47'817.3
2017-Jul-21 11:21N 50°22' W 125°34'616.5
2017-Jul-21 10:58N 50°19' W 125°25'818.1
2017-Jul-21 10:30N 50°11' W 125°22'511.0
2017-Jul-21 10:00N 50°06' W 125°18'4 7.0
2017-Jul-21 09:30N 50°03' W 125°15'510.7
2017-Jul-21 09:00N 49°59' W 125°11'611.7
2017-Jul-21 08:30N 49°55' W 125°04'611.9
2017-Jul-21 08:00N 49°51' W 124°56'611.8
2017-Jul-21 07:30N 49°48' W 124°50'611.8
2017-Jul-21 07:00N 49°43' W 124°43'611.9
2017-Jul-21 06:30N 49°39' W 124°37'611.9
2017-Jul-21 06:00N 49°34' W 124°32'612.2
2017-Jul-21 05:30N 49°28' W 124°27'611.8
2017-Jul-21 05:00N 49°26' W 124°19'611.9
2017-Jul-21 04:29N 49°24' W 124°10'611.8
2017-Jul-21 04:00N 49°22' W 124°02'611.9
2017-Jul-21 03:28N 49°21' W 123°52'612.1
2017-Jul-21 03:00N 49°20' W 123°44'612.5
2017-Jul-21 02:30N 49°19' W 123°34'612.2
2017-Jul-21 02:00N 49°19' W 123°25'612.0
2017-Jul-21 01:30N 49°19' W 123°16'611.1
2017-Jul-21 01:00N 49°19' W 123°08'1 2.5
2017-Jul-21 00:29N 49°17' W 123°07'0 0.0
2017-Jul-20 23:59N 49°17' W 123°07'0 0.1
2017-Jul-20 23:29N 49°17' W 123°07'0 0.1
2017-Jul-20 22:59N 49°17' W 123°07'0 0.0
2017-Jul-20 22:29N 49°17' W 123°07'0 0.1
2017-Jul-20 21:59N 49°17' W 123°07'0 0.1
2017-Jul-20 21:29N 49°17' W 123°07'0 0.0
2017-Jul-20 20:59N 49°17' W 123°07'0 0.0
2017-Jul-20 20:29N 49°17' W 123°07'0 0.0
2017-Jul-20 19:59N 49°17' W 123°07'0 0.0
2017-Jul-20 19:29N 49°17' W 123°07'0 0.0
2017-Jul-20 18:59N 49°17' W 123°07'0 0.0
2017-Jul-20 18:29N 49°17' W 123°07'0 0.0
2017-Jul-20 17:59N 49°17' W 123°07'0 0.1
2017-Jul-20 17:29N 49°17' W 123°07'0 0.1
2017-Jul-20 16:59N 49°17' W 123°07'0 0.0
2017-Jul-20 16:29N 49°17' W 123°07'0 0.0
2017-Jul-20 15:44N 49°17' W 123°07'0 0.0
2017-Jul-20 15:29N 49°17' W 123°07'0 0.0
2017-Jul-20 14:59N 49°17' W 123°07'0 0.2
2017-Jul-20 14:00N 49°17' W 123°06'2 3.9
2017-Jul-20 13:30N 49°19' W 123°08'511.0
2017-Jul-20 13:00N 49°18' W 123°17'511.0
2017-Jul-20 12:30N 49°19' W 123°25'611.4
2017-Jul-20 12:00N 49°19' W 123°34'611.5
2017-Jul-20 11:31N 49°19' W 123°43'711.1
2017-Jul-20 10:55N 49°20' W 123°53'511.4
2017-Jul-20 10:27N 49°22' W 124°00'511.0
2017-Jul-20 09:59N 49°23' W 124°08'511.0
2017-Jul-20 09:30N 49°25' W 124°16'610.9
2017-Jul-20 09:00N 49°27' W 124°23'510.9
2017-Jul-20 08:30N 49°31' W 124°30'511.0
2017-Jul-20 08:00N 49°35' W 124°35'611.1
2017-Jul-20 07:30N 49°39' W 124°41'511.0
2017-Jul-20 07:01N 49°44' W 124°44'611.2
2017-Jul-20 06:30N 49°48' W 124°50'611.3
2017-Jul-20 06:00N 49°52' W 124°57'611.2
2017-Jul-20 05:30N 49°55' W 125°04'611.2
2017-Jul-20 04:59N 49°59' W 125°11'511.0
2017-Jul-20 04:30N 50°04' W 125°15'713.3
2017-Jul-20 04:00N 50°09' W 125°21'815.1
2017-Jul-20 03:31N 50°16' W 125°24'914.8
2017-Jul-20 02:54N 50°22' W 125°34'816.2
2017-Jul-20 02:26N 50°22' W 125°46'2316.4
2017-Jul-20 01:00N 50°30' W 126°21'1316.7
2017-Jul-20 00:14N 50°32' W 126°41'414.7
2017-Jul-19 23:59N 50°36' W 126°43'1218.8
2017-Jul-19 23:20N 50°42' W 126°59'617.8
2017-Jul-19 22:59N 50°45' W 127°08'917.8
2017-Jul-19 22:30N 50°48' W 127°20'917.4
2017-Jul-19 22:01N 50°52' W 127°33'917.0
2017-Jul-19 21:30N 50°57' W 127°44'714.4
2017-Jul-19 21:00N 51°01' W 127°53'816.1
2017-Jul-19 20:30N 51°06' W 128°03'816.4
2017-Jul-19 20:00N 51°11' W 128°14'816.3
2017-Jul-19 19:30N 51°16' W 128°24'816.5
2017-Jul-19 19:00N 51°21' W 128°34'916.3
2017-Jul-19 18:28N 51°26' W 128°46'715.9
2017-Jul-19 18:00N 51°30' W 128°56'1116.5
2017-Jul-19 17:22N 51°36' W 129°10'616.8
2017-Jul-19 17:00N 51°39' W 129°18'816.4
2017-Jul-19 16:30N 51°44' W 129°29'816.5
2017-Jul-19 16:00N 51°48' W 129°40'816.2
2017-Jul-19 15:30N 51°55' W 129°48'  
2017-Jul-16 10:13N 58°12' W 135°25'415.3
2017-Jul-16 09:59N 58°13' W 135°31'715.4
2017-Jul-16 09:31N 58°17' W 135°43'815.2
2017-Jul-16 09:00N 58°19' W 135°57'815.7
2017-Jul-16 08:30N 58°19' W 136°12'123 4.1
2017-Jul-15 02:50N 59°17' W 139°41'  
Track history (hours):
 
Tides and Currents Weather Stations Pressure Air Temp Water Temp Dewpoint Dewpoint Depression Visibility Wind Speed Wind Dir Waves Ship Positions

Silver Shadow

Operator: V Ships Leisure SAM

Last reported at 2017-Jul-21 22:07 UTC. Time now 2017-Jul-22 16:56 UTC.
Position N 51°50' W 129°44'.

Length 186 m; draft 6.1 m.

Type: Ship. MMSI: 308628000.

Date/timePositionNaut miles runAvg speedWind from/ knotsBaromVisibWave heightAir tempDewpointWater temp
2017-Jul-21 22:07N 51°50' W 129°44'317.0
2017-Jul-21 21:58N 51°48' W 129°40'817.6
2017-Jul-21 21:31N 51°44' W 129°30'816.9
2017-Jul-21 21:01N 51°39' W 129°18'917.0
2017-Jul-21 20:31N 51°34' W 129°07'816.7
2017-Jul-21 20:01N 51°30' W 128°55'816.8
2017-Jul-21 19:30N 51°25' W 128°44'917.3
2017-Jul-21 19:00N 51°20' W 128°33'918.1
2017-Jul-21 18:30N 51°15' W 128°21'917.9
2017-Jul-21 18:00N 51°09' W 128°10'918.1
2017-Jul-21 17:28N 51°04' W 127°57'817.5
2017-Jul-21 17:00N 50°59' W 127°47'815.6
2017-Jul-21 16:30N 50°54' W 127°37'917.2
2017-Jul-21 16:00N 50°50' W 127°26'917.7
2017-Jul-21 15:30N 50°46' W 127°13'917.4
2017-Jul-21 15:00N 50°43' W 126°60'917.2
2017-Jul-21 14:28N 50°38' W 126°48'815.2
2017-Jul-21 13:58N 50°32' W 126°40'915.6
2017-Jul-21 13:25N 50°30' W 126°27'2716.9
2017-Jul-21 11:50N 50°23' W 125°47'817.3
2017-Jul-21 11:21N 50°22' W 125°34'616.5
2017-Jul-21 10:58N 50°19' W 125°25'818.1
2017-Jul-21 10:30N 50°11' W 125°22'511.0
2017-Jul-21 10:00N 50°06' W 125°18'4 7.0
2017-Jul-21 09:30N 50°03' W 125°15'510.7
2017-Jul-21 09:00N 49°59' W 125°11'611.7
2017-Jul-21 08:30N 49°55' W 125°04'611.9
2017-Jul-21 08:00N 49°51' W 124°56'611.8
2017-Jul-21 07:30N 49°48' W 124°50'611.8
2017-Jul-21 07:00N 49°43' W 124°43'611.9
2017-Jul-21 06:30N 49°39' W 124°37'611.9
2017-Jul-21 06:00N 49°34' W 124°32'612.2
2017-Jul-21 05:30N 49°28' W 124°27'611.8
2017-Jul-21 05:00N 49°26' W 124°19'611.9
2017-Jul-21 04:29N 49°24' W 124°10'611.8
2017-Jul-21 04:00N 49°22' W 124°02'611.9
2017-Jul-21 03:28N 49°21' W 123°52'612.1
2017-Jul-21 03:00N 49°20' W 123°44'612.5
2017-Jul-21 02:30N 49°19' W 123°34'612.2
2017-Jul-21 02:00N 49°19' W 123°25'612.0
2017-Jul-21 01:30N 49°19' W 123°16'611.1
2017-Jul-21 01:00N 49°19' W 123°08'1 2.5
2017-Jul-21 00:29N 49°17' W 123°07'0 0.0
2017-Jul-20 23:59N 49°17' W 123°07'0 0.1
2017-Jul-20 23:29N 49°17' W 123°07'0 0.1
2017-Jul-20 22:59N 49°17' W 123°07'0 0.0
2017-Jul-20 22:29N 49°17' W 123°07'0 0.1
2017-Jul-20 21:59N 49°17' W 123°07'0 0.1
2017-Jul-20 21:29N 49°17' W 123°07'0 0.0
2017-Jul-20 20:59N 49°17' W 123°07'0 0.0
2017-Jul-20 20:29N 49°17' W 123°07'0 0.0
2017-Jul-20 19:59N 49°17' W 123°07'0 0.0
2017-Jul-20 19:29N 49°17' W 123°07'0 0.0
2017-Jul-20 18:59N 49°17' W 123°07'0 0.0
2017-Jul-20 18:29N 49°17' W 123°07'0 0.0
2017-Jul-20 17:59N 49°17' W 123°07'0 0.1
2017-Jul-20 17:29N 49°17' W 123°07'0 0.1
2017-Jul-20 16:59N 49°17' W 123°07'0 0.0
2017-Jul-20 16:29N 49°17' W 123°07'0 0.0
2017-Jul-20 15:44N 49°17' W 123°07'0 0.0
2017-Jul-20 15:29N 49°17' W 123°07'0 0.0
2017-Jul-20 14:59N 49°17' W 123°07'0 0.2
2017-Jul-20 14:00N 49°17' W 123°06'2 3.9
2017-Jul-20 13:30N 49°19' W 123°08'511.0
2017-Jul-20 13:00N 49°18' W 123°17'511.0
2017-Jul-20 12:30N 49°19' W 123°25'611.4
2017-Jul-20 12:00N 49°19' W 123°34'611.5
2017-Jul-20 11:31N 49°19' W 123°43'711.1
2017-Jul-20 10:55N 49°20' W 123°53'511.4
2017-Jul-20 10:27N 49°22' W 124°00'511.0
2017-Jul-20 09:59N 49°23' W 124°08'511.0
2017-Jul-20 09:30N 49°25' W 124°16'610.9
2017-Jul-20 09:00N 49°27' W 124°23'510.9
2017-Jul-20 08:30N 49°31' W 124°30'511.0
2017-Jul-20 08:00N 49°35' W 124°35'611.1
2017-Jul-20 07:30N 49°39' W 124°41'511.0
2017-Jul-20 07:01N 49°44' W 124°44'611.2
2017-Jul-20 06:30N 49°48' W 124°50'611.3
2017-Jul-20 06:00N 49°52' W 124°57'611.2
2017-Jul-20 05:30N 49°55' W 125°04'611.2
2017-Jul-20 04:59N 49°59' W 125°11'511.0
2017-Jul-20 04:30N 50°04' W 125°15'713.3
2017-Jul-20 04:00N 50°09' W 125°21'815.1
2017-Jul-20 03:31N 50°16' W 125°24'914.8
2017-Jul-20 02:54N 50°22' W 125°34'816.2
2017-Jul-20 02:26N 50°22' W 125°46'2316.4
2017-Jul-20 01:00N 50°30' W 126°21'1316.7
2017-Jul-20 00:14N 50°32' W 126°41'414.7
2017-Jul-19 23:59N 50°36' W 126°43'1218.8
2017-Jul-19 23:20N 50°42' W 126°59'617.8
2017-Jul-19 22:59N 50°45' W 127°08'917.8
2017-Jul-19 22:30N 50°48' W 127°20'917.4
2017-Jul-19 22:01N 50°52' W 127°33'917.0
2017-Jul-19 21:30N 50°57' W 127°44'714.4
2017-Jul-19 21:00N 51°01' W 127°53'816.1
2017-Jul-19 20:30N 51°06' W 128°03'816.4
2017-Jul-19 20:00N 51°11' W 128°14'816.3
2017-Jul-19 19:30N 51°16' W 128°24'816.5
2017-Jul-19 19:00N 51°21' W 128°34'916.3
2017-Jul-19 18:28N 51°26' W 128°46'715.9
2017-Jul-19 18:00N 51°30' W 128°56'1116.5
2017-Jul-19 17:22N 51°36' W 129°10'616.8
2017-Jul-19 17:00N 51°39' W 129°18'816.4
2017-Jul-19 16:30N 51°44' W 129°29'816.5
2017-Jul-19 16:00N 51°48' W 129°40'816.2
2017-Jul-19 15:30N 51°55' W 129°48'  
2017-Jul-16 10:13N 58°12' W 135°25'415.3
2017-Jul-16 09:59N 58°13' W 135°31'715.4
2017-Jul-16 09:31N 58°17' W 135°43'815.2
2017-Jul-16 09:00N 58°19' W 135°57'815.7
2017-Jul-16 08:30N 58°19' W 136°12'123 4.1
2017-Jul-15 02:50N 59°17' W 139°41'  

Dump ship's entire track history